createdAt,value
2023-01-04T00:00:38.127Z,9847.38
2023-01-04T00:01:41.521Z,10491.81
2023-01-04T00:02:44.794Z,10813.56
2023-01-04T00:03:48.370Z,10813.97
2023-01-04T00:04:51.606Z,10813.84
2023-01-04T00:05:54.980Z,10813.41
2023-01-04T00:06:58.096Z,10813.34
2023-01-04T00:08:01.091Z,10491.34
2023-01-04T00:09:04.343Z,8882.19
2023-01-04T00:10:07.221Z,9204.53
2023-01-04T00:11:15.048Z,10172.03
2023-01-04T00:12:17.783Z,11138.72
2023-01-04T00:13:20.436Z,12106.06
2023-01-04T00:14:23.181Z,13395.16
2023-01-04T00:15:25.703Z,14040.22
2023-01-04T00:16:29.638Z,14685.53
2023-01-04T00:17:32.237Z,15975.25
2023-01-04T00:18:36.934Z,16297.81
2023-01-04T00:19:39.512Z,17264.78
2023-01-04T00:20:42.099Z,16618.41
2023-01-04T00:21:44.673Z,16295.75
2023-01-04T00:22:47.243Z,15650.19
2023-01-04T00:23:53.087Z,15005.06
2023-01-04T00:24:55.613Z,14682.25
2023-01-04T00:25:58.167Z,15327.50
2023-01-04T00:27:00.689Z,15973.13
2023-01-04T00:28:03.409Z,15973.13
2023-01-04T00:29:08.092Z,16296.22
2023-01-04T00:30:11.131Z,16296.66
2023-01-04T00:31:15.951Z,16619.09
2023-01-04T00:32:18.536Z,16618.88
2023-01-04T00:33:21.930Z,16618.41
2023-01-04T00:34:24.449Z,16942.06
2023-01-04T00:35:44.533Z,16941.81
2023-01-04T00:36:48.455Z,16619.59
2023-01-04T00:37:52.287Z,16941.56
2023-01-04T00:39:08.447Z,17264.53
2023-01-04T00:40:12.099Z,17587.53
2023-01-04T00:41:48.739Z,17586.78
2023-01-04T00:42:37.510Z,16619.22
2023-01-04T00:43:40.633Z,17586.78
2023-01-04T00:44:43.418Z,17586.66
2023-01-04T00:45:45.974Z,17264.78
2023-01-04T00:46:49.005Z,16618.88
2023-01-04T00:47:51.827Z,16941.81
2023-01-04T00:49:00.210Z,16619.34
2023-01-04T00:50:04.154Z,17265.28
2023-01-04T00:51:06.823Z,17911.59
2023-01-04T00:52:09.941Z,18234.44
2023-01-04T00:53:13.178Z,18558.25
2023-01-04T00:54:16.568Z,18235.25
2023-01-04T00:55:19.182Z,18235.50
2023-01-04T00:56:21.831Z,19204.09
2023-01-04T00:57:24.352Z,19528.34
2023-01-04T00:58:26.864Z,19851.94
2023-01-04T00:59:29.399Z,20175.13
2023-01-04T01:00:32.027Z,21145.41
2023-01-04T01:01:36.197Z,21468.72
2023-01-04T01:02:38.951Z,22763.75
2023-01-04T01:03:43.744Z,23410.81
2023-01-04T01:04:46.229Z,23411.16
2023-01-04T01:05:48.863Z,23734.56
2023-01-04T01:06:52.429Z,23089.66
2023-01-04T01:07:55.001Z,23734.94
2023-01-04T01:08:58.436Z,23736.53
2023-01-04T01:10:00.961Z,23412.22
2023-01-04T01:11:09.364Z,24060.19
2023-01-04T01:12:11.997Z,24382.94
2023-01-04T01:13:14.519Z,24706.63
2023-01-04T01:14:20.527Z,25033.38
2023-01-04T01:15:23.053Z,25679.84
2023-01-04T01:16:53.204Z,26002.72
2023-01-04T01:17:49.466Z,26325.81
2023-01-04T01:18:51.968Z,26976.28
2023-01-04T01:19:54.499Z,27623.88
2023-01-04T01:20:57.010Z,27623.44
2023-01-04T01:21:59.786Z,27946.88
2023-01-04T01:23:02.415Z,27298.81
2023-01-04T01:24:05.943Z,26975.25
2023-01-04T01:25:08.778Z,27299.22
2023-01-04T01:26:14.182Z,26977.09
2023-01-04T01:27:16.941Z,27948.13
2023-01-04T01:28:19.829Z,28272.84
2023-01-04T01:29:22.595Z,28274.56
2023-01-04T01:30:25.593Z,28273.72
2023-01-04T01:31:29.863Z,28599.38
2023-01-04T01:32:32.791Z,28272.84
2023-01-04T01:33:39.874Z,27302.94
2023-01-04T01:34:42.873Z,28921.16
2023-01-04T01:35:45.997Z,28924.44
2023-01-04T01:36:49.353Z,28924.22
2023-01-04T01:37:52.479Z,29571.81
2023-01-04T01:38:55.963Z,29896.78
2023-01-04T01:39:59.087Z,29248.22
2023-01-04T01:41:02.216Z,29898.13
2023-01-04T01:42:05.326Z,30546.38
2023-01-04T01:43:18.049Z,30548.25
2023-01-04T01:44:42.898Z,30548.72
2023-01-04T01:45:50.339Z,31519.44
2023-01-04T01:46:55.059Z,31195.69
2023-01-04T01:48:15.297Z,30873.13
2023-01-04T01:49:28.144Z,30873.84
2023-01-04T01:50:39.562Z,30873.38
2023-01-04T01:51:43.383Z,30871.47
2023-01-04T01:52:48.424Z,30873.38
2023-01-04T01:53:59.118Z,31198.53
2023-01-04T01:55:05.355Z,29579.00
2023-01-04T01:56:10.635Z,30875.25
2023-01-04T01:57:18.793Z,30877.13
2023-01-04T01:58:38.112Z,31201.16
2023-01-04T01:59:44.476Z,31849.78
2023-01-04T02:00:47.724Z,31848.56
2023-01-04T02:01:51.013Z,31524.25
2023-01-04T02:03:20.367Z,28932.56
2023-01-04T02:04:23.484Z,27309.53
2023-01-04T02:05:29.013Z,26014.06
2023-01-04T02:06:35.368Z,24071.84
2023-01-04T02:07:38.970Z,22130.03
2023-01-04T02:08:43.651Z,20188.25
2023-01-04T02:09:48.337Z,19542.69
2023-01-04T02:10:51.701Z,18248.91
2023-01-04T02:11:54.334Z,17279.34
2023-01-04T02:12:57.579Z,15986.53
2023-01-04T02:14:22.178Z,14695.53
2023-01-04T02:15:29.022Z,12435.97
2023-01-04T02:16:58.664Z,10500.34
2023-01-04T02:18:12.464Z,8243.59
2023-01-04T02:19:37.073Z,5022.19
2023-01-04T02:20:59.635Z,1803.53
2023-01-04T02:22:30.236Z,-1412.16
2023-01-04T02:23:46.849Z,-3018.59
2023-01-04T02:25:19.848Z,-5266.16
2023-01-04T02:26:37.498Z,-7512.44
2023-01-04T02:28:02.639Z,-9116.75
2023-01-04T02:29:30.970Z,-10719.53
2023-01-04T02:30:45.854Z,-12321.75
2023-01-04T02:31:57.506Z,-13281.94
2023-01-04T02:33:05.577Z,-14883.47
2023-01-04T02:34:44.173Z,-16483.72
2023-01-04T02:36:19.973Z,-18083.72
2023-01-04T02:38:00.646Z,-19681.97
2023-01-04T02:39:12.173Z,-20321.88
2023-01-04T02:40:19.224Z,-20321.88
2023-01-04T02:41:43.972Z,-20320.78
2023-01-04T02:43:15.908Z,-20321.13
2023-01-04T02:44:53.943Z,-20321.50
2023-01-04T02:46:06.158Z,-20322.06
2023-01-04T02:47:43.261Z,-20322.06
2023-01-04T02:49:04.507Z,-20321.88
2023-01-04T02:50:36.160Z,-20323.34
2023-01-04T02:51:39.420Z,-20322.63
2023-01-04T02:52:41.948Z,-20322.63
2023-01-04T02:53:44.494Z,-20321.88
2023-01-04T02:54:49.985Z,-20321.88
2023-01-04T02:56:13.502Z,-20323.00
2023-01-04T02:57:48.667Z,-20321.50
2023-01-04T02:59:26.348Z,-20320.00
2023-01-04T03:01:13.941Z,-20319.63
2023-01-04T03:02:59.431Z,-20321.13
2023-01-04T03:04:23.345Z,-19999.91
2023-01-04T03:05:56.829Z,-20001.00
2023-01-04T03:07:19.284Z,-20001.94
2023-01-04T03:08:56.968Z,-20001.38
2023-01-04T03:10:12.915Z,-20001.00
2023-01-04T03:11:36.589Z,-20001.19
2023-01-04T03:12:46.877Z,-20001.00
2023-01-04T03:13:49.404Z,-19999.38
2023-01-04T03:15:00.545Z,-20001.56
2023-01-04T03:16:22.093Z,-20322.97
2023-01-04T03:17:26.485Z,-20322.78
2023-01-04T03:18:34.165Z,-20323.16
2023-01-04T03:19:55.400Z,-20323.50
2023-01-04T03:21:01.429Z,-20323.16
2023-01-04T03:22:06.210Z,-20321.47
2023-01-04T03:23:30.935Z,-20322.22
2023-01-04T03:24:53.147Z,-20321.84
2023-01-04T03:26:25.779Z,-20320.75
2023-01-04T03:27:47.499Z,-20319.81
2023-01-04T03:29:10.180Z,-20321.13
2023-01-04T03:30:34.303Z,-20321.84
2023-01-04T03:32:06.827Z,-20322.59
2023-01-04T03:33:28.428Z,-20320.75
2023-01-04T03:34:49.917Z,-20320.75
2023-01-04T03:36:19.914Z,-20321.31
2023-01-04T03:37:34.949Z,-20320.75
2023-01-04T03:39:06.607Z,-20322.03
2023-01-04T03:40:45.359Z,-20322.22
2023-01-04T03:42:15.483Z,-20322.22
2023-01-04T03:43:42.736Z,-20322.97
2023-01-04T03:45:38.300Z,-20322.41
2023-01-04T03:47:12.003Z,-20322.22
2023-01-04T03:48:30.978Z,-20324.47
2023-01-04T03:49:49.575Z,-20321.13
2023-01-04T03:50:59.546Z,-20323.91
2023-01-04T03:52:05.057Z,-20324.66
2023-01-04T03:53:09.747Z,-20324.84
2023-01-04T03:54:22.464Z,-20326.31
2023-01-04T03:55:29.906Z,-20325.94
2023-01-04T03:56:36.510Z,-20325.56
2023-01-04T03:57:41.668Z,-20325.75
2023-01-04T03:58:44.909Z,-20325.56
2023-01-04T03:59:56.676Z,-20327.78
2023-01-04T04:01:04.185Z,-20327.06
2023-01-04T04:02:14.325Z,-20326.50
2023-01-04T04:03:17.922Z,-20326.31
2023-01-04T04:04:39.518Z,-20327.97
2023-01-04T04:06:03.170Z,-20327.78
2023-01-04T04:07:25.973Z,-20326.84
2023-01-04T04:08:29.476Z,-20327.78
2023-01-04T04:09:33.050Z,-20328.72
2023-01-04T04:10:36.289Z,-20328.16
2023-01-04T04:11:39.297Z,-20328.53
2023-01-04T04:12:42.056Z,-20328.72
2023-01-04T04:13:45.657Z,-20330.00
2023-01-04T04:14:48.307Z,-20330.38
2023-01-04T04:15:53.587Z,-20331.28
2023-01-04T04:16:56.425Z,-20329.63
2023-01-04T04:17:59.100Z,-20331.09
2023-01-04T04:19:07.951Z,-20331.84
2023-01-04T04:20:12.561Z,-20332.22
2023-01-04T04:21:15.426Z,-20332.22
2023-01-04T04:22:17.951Z,-20333.16
2023-01-04T04:23:20.523Z,-20332.59
2023-01-04T04:24:25.683Z,-20333.69
2023-01-04T04:25:28.417Z,-20333.88
2023-01-04T04:26:31.209Z,-20334.63
2023-01-04T04:27:33.726Z,-20335.72
2023-01-04T04:28:36.438Z,-20335.91
2023-01-04T04:29:39.006Z,-20335.72
2023-01-04T04:30:41.648Z,-20337.03
2023-01-04T04:31:44.549Z,-20338.13
2023-01-04T04:32:47.047Z,-20338.13
2023-01-04T04:33:49.648Z,-20338.13
2023-01-04T04:34:52.221Z,-20338.88
2023-01-04T04:35:55.532Z,-20339.59
2023-01-04T04:36:58.087Z,-20340.72
2023-01-04T04:38:00.613Z,-20340.72
2023-01-04T04:39:03.971Z,-20340.53
2023-01-04T04:40:07.297Z,-20341.25
2023-01-04T04:41:31.070Z,-20341.44
2023-01-04T04:42:33.735Z,-20339.94
2023-01-04T04:43:36.463Z,-20340.69
2023-01-04T04:44:38.907Z,-20340.69
2023-01-04T04:45:41.547Z,-20341.41
2023-01-04T04:46:44.904Z,-20342.91
2023-01-04T04:47:47.545Z,-20343.25
2023-01-04T04:48:50.785Z,-20344.38
2023-01-04T04:49:53.415Z,-20345.47
2023-01-04T04:50:56.059Z,-20346.94
2023-01-04T04:51:58.578Z,-20347.50
2023-01-04T04:53:01.338Z,-20350.31
2023-01-04T04:54:04.583Z,-20350.84
2023-01-04T04:55:07.952Z,-20351.03
2023-01-04T04:56:10.460Z,-20350.84
2023-01-04T04:57:12.982Z,-20351.78
2023-01-04T04:58:15.504Z,-20352.72
2023-01-04T04:59:18.286Z,-20353.44
2023-01-04T05:00:20.785Z,-20354.75
2023-01-04T05:01:23.554Z,-20354.75
2023-01-04T05:02:26.681Z,-20356.03
2023-01-04T05:03:29.636Z,-20356.03
2023-01-04T05:04:32.189Z,-20356.22
2023-01-04T05:05:34.848Z,-20357.34
2023-01-04T05:06:37.355Z,-20358.81
2023-01-04T05:07:39.866Z,-20360.09
2023-01-04T05:08:42.504Z,-20360.28
2023-01-04T05:09:44.916Z,-20360.28
2023-01-04T05:10:47.318Z,-20361.19
2023-01-04T05:12:08.437Z,-20361.94
2023-01-04T05:13:13.287Z,-20362.31
2023-01-04T05:14:15.881Z,-20363.22
2023-01-04T05:15:18.394Z,-20362.50
2023-01-04T05:16:20.962Z,-20363.22
2023-01-04T05:17:23.441Z,-20363.22
2023-01-04T05:18:25.993Z,-20363.97
2023-01-04T05:19:28.614Z,-20365.06
2023-01-04T05:20:31.244Z,-20366.56
2023-01-04T05:21:33.766Z,-20366.56
2023-01-04T05:22:36.414Z,-20367.28
2023-01-04T05:23:38.936Z,-20367.47
2023-01-04T05:24:41.458Z,-20368.41
2023-01-04T05:25:44.453Z,-20367.28
2023-01-04T05:26:46.980Z,-20368.03
2023-01-04T05:27:49.867Z,-20369.31
2023-01-04T05:28:54.177Z,-20369.88
2023-01-04T05:30:15.420Z,-20371.53
2023-01-04T05:32:31.267Z,-20373.38
2023-01-04T05:33:33.907Z,-20372.66
2023-01-04T05:34:36.911Z,-20373.38
2023-01-04T05:35:39.912Z,-20374.50
2023-01-04T05:36:42.792Z,-20375.78
2023-01-04T05:37:45.923Z,-20376.53
2023-01-04T05:38:48.920Z,-20376.91
2023-01-04T05:39:52.041Z,-20378.00
2023-01-04T05:40:56.007Z,-20378.38
2023-01-04T05:42:17.622Z,-20378.00
2023-01-04T05:43:22.174Z,-20378.00
2023-01-04T05:44:25.284Z,-20378.38
2023-01-04T05:45:28.653Z,-20380.03
2023-01-04T05:46:31.841Z,-20381.88
2023-01-04T05:47:35.131Z,-20382.25
2023-01-04T05:48:38.251Z,-20382.81
2023-01-04T05:49:41.384Z,-20383.91
2023-01-04T05:50:46.175Z,-20384.28
2023-01-04T05:51:49.296Z,-20384.66
2023-01-04T05:52:53.258Z,-20385.75
2023-01-04T05:53:56.502Z,-20386.50
2023-01-04T05:54:59.746Z,-20387.97
2023-01-04T05:56:02.863Z,-20387.41
2023-01-04T05:57:06.105Z,-20388.72
2023-01-04T05:58:09.237Z,-20389.06
2023-01-04T05:59:12.347Z,-20388.53
2023-01-04T06:00:15.975Z,-20390.19
2023-01-04T06:01:18.976Z,-20390.00
2023-01-04T06:02:25.534Z,-20391.28
2023-01-04T06:03:28.975Z,-20390.91
2023-01-04T06:04:32.521Z,-20392.41
2023-01-04T06:05:35.770Z,-20393.31
2023-01-04T06:06:39.000Z,-20394.25
2023-01-04T06:07:42.242Z,-20393.50
2023-01-04T06:08:45.483Z,-20394.97
2023-01-04T06:09:48.845Z,-20394.63
2023-01-04T06:10:54.852Z,-20396.47
2023-01-04T06:11:57.983Z,-20394.06
2023-01-04T06:13:01.097Z,-20394.97
2023-01-04T06:14:04.214Z,-20395.34
2023-01-04T06:15:08.188Z,-20396.66
2023-01-04T06:16:10.823Z,-20397.75
2023-01-04T06:17:13.646Z,-20396.66
2023-01-04T06:18:16.460Z,-20397.56
2023-01-04T06:19:19.231Z,-20399.03
2023-01-04T06:20:21.917Z,-20400.34
2023-01-04T06:21:25.653Z,-20399.97
2023-01-04T06:22:29.188Z,-20401.06
2023-01-04T06:23:33.272Z,-20401.63
2023-01-04T06:24:36.335Z,-20402.75
2023-01-04T06:25:39.204Z,-20402.38
2023-01-04T06:26:41.736Z,-20403.09
2023-01-04T06:27:44.484Z,-20403.47
2023-01-04T06:28:47.196Z,-20404.03
2023-01-04T06:29:49.723Z,-20406.06
2023-01-04T06:30:52.430Z,-20405.31
2023-01-04T06:31:55.603Z,-20406.81
2023-01-04T06:32:58.287Z,-20407.91
2023-01-04T06:34:01.047Z,-20408.28
2023-01-04T06:35:03.828Z,-20407.53
2023-01-04T06:36:07.532Z,-20408.81
2023-01-04T06:37:22.143Z,-20409.94
2023-01-04T06:38:24.807Z,-20409.94
2023-01-04T06:39:27.447Z,-20410.13
2023-01-04T06:40:30.060Z,-20411.22
2023-01-04T06:41:32.607Z,-20411.22
2023-01-04T06:42:47.390Z,-20411.97
2023-01-04T06:43:50.491Z,-20411.97
2023-01-04T06:44:53.011Z,-20412.69
2023-01-04T06:45:55.614Z,-20412.53
2023-01-04T06:46:58.174Z,-20412.88
2023-01-04T06:48:04.528Z,-20412.88
2023-01-04T06:49:11.385Z,-20411.97
2023-01-04T06:50:14.145Z,-20413.06
2023-01-04T06:51:16.662Z,-20412.34
2023-01-04T06:52:19.661Z,-20413.25
2023-01-04T06:53:22.424Z,-20409.94
2023-01-04T06:54:25.204Z,-20413.06
2023-01-04T06:55:29.865Z,-20413.06
2023-01-04T06:56:33.720Z,-20413.44
2023-01-04T06:57:36.232Z,-20413.44
2023-01-04T06:58:38.992Z,-20413.44
2023-01-04T06:59:41.508Z,-20412.69
2023-01-04T07:00:44.027Z,-20413.81
2023-01-04T07:01:46.598Z,-20414.53
2023-01-04T07:03:13.608Z,-20414.38
2023-01-04T07:04:11.758Z,-20411.78
2023-01-04T07:05:14.277Z,-20413.06
2023-01-04T07:06:17.035Z,-20412.34
2023-01-04T07:07:19.555Z,-20412.88
2023-01-04T07:08:22.307Z,-20413.06
2023-01-04T07:09:24.958Z,-20413.81
2023-01-04T07:10:27.761Z,-20414.19
2023-01-04T07:11:30.227Z,-20414.53
2023-01-04T07:12:33.038Z,-20414.91
2023-01-04T07:13:35.639Z,-20415.66
2023-01-04T07:14:38.154Z,-20415.84
2023-01-04T07:15:43.371Z,-20416.75
2023-01-04T07:16:46.018Z,-20417.13
2023-01-04T07:17:49.566Z,-20418.06
2023-01-04T07:18:52.199Z,-20417.88
2023-01-04T07:19:54.720Z,-20417.31
2023-01-04T07:20:57.260Z,-20416.75
2023-01-04T07:21:59.804Z,-20417.13
2023-01-04T07:23:02.415Z,-20416.34
2023-01-04T07:24:04.951Z,-20416.00
2023-01-04T07:25:08.050Z,-20416.19
2023-01-04T07:26:10.702Z,-20094.91
2023-01-04T07:27:13.332Z,-20416.53
2023-01-04T07:28:38.801Z,-20417.09
2023-01-04T07:29:44.293Z,-20418.97
2023-01-04T07:30:46.976Z,-20417.50
2023-01-04T07:31:51.194Z,-20417.88
2023-01-04T07:32:55.461Z,-20418.25
2023-01-04T07:33:58.231Z,-20418.25
2023-01-04T07:35:01.109Z,-20418.25
2023-01-04T07:36:05.564Z,-20418.97
2023-01-04T07:37:11.199Z,-20419.16
2023-01-04T07:38:14.315Z,-20419.72
2023-01-04T07:39:18.660Z,-20420.44
2023-01-04T07:40:21.763Z,-20419.34
2023-01-04T07:41:24.875Z,-20419.34
2023-01-04T07:42:27.996Z,-20420.81
2023-01-04T07:43:31.252Z,-20421.00
2023-01-04T07:44:34.367Z,-20421.00
2023-01-04T07:45:40.005Z,-20420.81
2023-01-04T07:46:43.461Z,-20421.56
2023-01-04T07:47:46.607Z,-20422.31
2023-01-04T07:48:49.849Z,-20421.94
2023-01-04T07:49:53.094Z,-20421.94
2023-01-04T07:50:56.451Z,-20422.31
2023-01-04T07:51:59.572Z,-20420.81
2023-01-04T07:53:02.817Z,-20421.94
2023-01-04T07:54:06.895Z,-20421.19
2023-01-04T07:55:10.619Z,-20420.81
2023-01-04T07:56:18.514Z,-20421.00
2023-01-04T07:57:22.142Z,-20420.09
2023-01-04T07:58:26.125Z,-20420.63
2023-01-04T07:59:29.346Z,-20420.44
2023-01-04T08:00:32.587Z,-20420.63
2023-01-04T08:01:38.246Z,-20420.44
2023-01-04T08:02:41.568Z,-20421.56
2023-01-04T08:03:47.839Z,-20423.03
2023-01-04T08:04:51.222Z,-20422.31
2023-01-04T08:05:54.318Z,-20421.94
2023-01-04T08:06:57.561Z,-20421.94
2023-01-04T08:08:00.920Z,-20421.94
2023-01-04T08:09:05.741Z,-20423.78
2023-01-04T08:10:09.918Z,-20423.78
2023-01-04T08:11:15.684Z,-20424.88
2023-01-04T08:12:18.933Z,-20423.78
2023-01-04T08:13:21.929Z,-20424.16
2023-01-04T08:14:24.814Z,-20424.88
2023-01-04T08:15:28.238Z,-20426.00
2023-01-04T08:16:36.723Z,-20427.47
2023-01-04T08:17:39.575Z,-20426.19
2023-01-04T08:18:42.217Z,-20426.38
2023-01-04T08:19:47.031Z,-20427.47
2023-01-04T08:20:54.885Z,-20427.09
2023-01-04T08:22:00.874Z,-20427.84
2023-01-04T08:23:03.397Z,-20428.94
2023-01-04T08:24:06.600Z,-20429.69
2023-01-04T08:25:09.588Z,-20429.50
2023-01-04T08:26:14.389Z,-20429.50
2023-01-04T08:27:16.910Z,-20430.06
2023-01-04T08:28:19.487Z,-20430.06
2023-01-04T08:29:22.081Z,-20429.88
2023-01-04T08:30:24.639Z,-20429.69
2023-01-04T08:31:30.979Z,-20431.91
2023-01-04T08:32:33.521Z,-20430.78
2023-01-04T08:33:37.804Z,-20432.66
2023-01-04T08:34:40.446Z,-20431.16
2023-01-04T08:35:43.088Z,-20432.28
2023-01-04T08:36:50.333Z,-20433.75
2023-01-04T08:37:53.093Z,-20433.38
2023-01-04T08:39:00.428Z,-20434.13
2023-01-04T08:40:04.371Z,-20433.19
2023-01-04T08:41:31.041Z,-20433.00
2023-01-04T08:42:31.916Z,-20435.22
2023-01-04T08:43:36.145Z,-20435.59
2023-01-04T08:44:38.968Z,-20435.97
2023-01-04T08:45:42.411Z,-20435.59
2023-01-04T08:46:45.379Z,-20435.59
2023-01-04T08:47:47.941Z,-20436.16
2023-01-04T08:48:52.017Z,-20436.34
2023-01-04T08:49:55.192Z,-20435.22
2023-01-04T08:51:02.094Z,-20436.72
2023-01-04T08:52:04.971Z,-20435.59
2023-01-04T08:53:07.981Z,-20435.97
2023-01-04T08:54:11.097Z,-20436.16
2023-01-04T08:55:16.809Z,-20436.34
2023-01-04T08:56:21.421Z,-20435.97
2023-01-04T08:57:23.936Z,-20437.06
2023-01-04T08:58:27.560Z,-20436.34
2023-01-04T08:59:30.215Z,-20437.44
2023-01-04T09:00:32.941Z,-20437.44
2023-01-04T09:01:36.138Z,-20436.53
2023-01-04T09:02:38.833Z,-20435.97
2023-01-04T09:03:42.182Z,-20435.97
2023-01-04T09:04:44.767Z,-20445.56
2023-01-04T09:05:47.348Z,58384.84
2023-01-04T09:06:49.878Z,62742.47
2023-01-04T09:07:52.507Z,47633.06
2023-01-04T09:08:57.080Z,21740.28
2023-01-04T09:10:01.061Z,9633.09
2023-01-04T09:11:17.223Z,-10672.16
2023-01-04T09:12:19.881Z,-16266.66
2023-01-04T09:13:22.392Z,-18520.38
2023-01-04T09:14:24.795Z,-19160.06
2023-01-04T09:15:27.308Z,-19161.13
2023-01-04T09:16:29.880Z,-19161.81
2023-01-04T09:17:32.356Z,-19482.72
2023-01-04T09:18:35.512Z,-19802.88
2023-01-04T09:19:38.596Z,-19803.03
2023-01-04T09:20:41.242Z,-20124.41
2023-01-04T09:21:44.290Z,-20124.41
2023-01-04T09:22:46.889Z,-20447.75
2023-01-04T09:23:49.642Z,-20447.75
2023-01-04T09:24:52.168Z,-20447.75
2023-01-04T09:25:55.193Z,-20450.19
2023-01-04T09:26:57.693Z,-20448.88
2023-01-04T09:28:00.328Z,-20449.44
2023-01-04T09:29:04.412Z,-20449.63
2023-01-04T09:30:07.899Z,-20450.00
2023-01-04T09:31:14.420Z,-20451.84
2023-01-04T09:32:17.216Z,-20450.72
2023-01-04T09:33:19.901Z,-20450.00
2023-01-04T09:34:22.664Z,-20454.06
2023-01-04T09:35:25.538Z,-20452.59
2023-01-04T09:36:29.151Z,-20452.22
2023-01-04T09:37:31.922Z,-20449.25
2023-01-04T09:38:35.990Z,-20450.38
2023-01-04T09:39:38.993Z,-20450.38
2023-01-04T09:41:00.486Z,-20452.22
2023-01-04T09:42:06.471Z,-20450.19
2023-01-04T09:43:21.210Z,-20452.94
2023-01-04T09:46:31.243Z,-20452.59
2023-01-04T09:48:12.961Z,-20454.44
2023-01-04T09:49:27.242Z,-20454.06
2023-01-04T09:50:41.168Z,-20455.72
2023-01-04T09:51:53.653Z,-20454.59
2023-01-04T09:53:19.096Z,-20456.28
2023-01-04T09:55:43.096Z,-20455.72
2023-01-04T09:56:59.187Z,-20456.81
2023-01-04T09:58:14.084Z,-20456.09
2023-01-04T09:59:19.715Z,-20456.47
2023-01-04T10:00:30.513Z,-20456.81
2023-01-04T10:01:44.600Z,-20456.66
2023-01-04T10:02:53.655Z,-20455.34
2023-01-04T10:04:05.551Z,-20455.53
2023-01-04T10:05:15.395Z,-20457.00
2023-01-04T10:06:18.758Z,-20455.34
2023-01-04T10:07:32.793Z,-20457.56
2023-01-04T10:08:36.522Z,-20456.47
2023-01-04T10:09:39.757Z,-20457.38
2023-01-04T10:11:06.535Z,-20458.66
2023-01-04T10:12:23.805Z,-20457.00
2023-01-04T10:13:58.854Z,-20459.59
2023-01-04T10:15:30.529Z,-20459.03
2023-01-04T10:18:13.642Z,-20461.06
2023-01-04T10:19:51.055Z,-20459.22
2023-01-04T10:22:00.290Z,-20459.97
2023-01-04T10:23:13.559Z,-20458.84
2023-01-04T10:24:42.781Z,-20460.31
2023-01-04T10:25:54.311Z,-20459.22
2023-01-04T10:27:06.066Z,-20458.47
2023-01-04T10:28:17.515Z,-20461.44
2023-01-04T10:29:29.038Z,-20461.06
2023-01-04T10:30:56.043Z,-20462.72
2023-01-04T10:32:05.783Z,-20465.50
2023-01-04T10:33:11.399Z,-20465.13
2023-01-04T10:34:27.355Z,-20463.84
2023-01-04T10:35:32.283Z,-20462.53
2023-01-04T10:36:35.401Z,-20460.69
2023-01-04T10:37:38.880Z,-20461.25
2023-01-04T10:38:43.301Z,-20460.16
2023-01-04T10:39:47.532Z,-20460.50
2023-01-04T10:40:51.019Z,-20461.44
2023-01-04T10:42:35.653Z,-20462.19
2023-01-04T10:44:11.428Z,-20462.53
2023-01-04T10:45:28.453Z,-20463.84
2023-01-04T10:46:33.172Z,-20461.81
2023-01-04T10:48:00.976Z,-20464.38
2023-01-04T10:49:18.101Z,-20463.28
2023-01-04T10:50:33.849Z,-20465.31
2023-01-04T10:51:54.613Z,-20466.06
2023-01-04T10:53:13.695Z,-20465.88
2023-01-04T10:54:39.735Z,-20467.91
2023-01-04T10:56:26.155Z,-20466.59
2023-01-04T10:57:30.993Z,-20466.25
2023-01-04T10:58:42.857Z,-20467.72
2023-01-04T10:59:58.456Z,-20466.25
2023-01-04T11:01:13.017Z,-20467.72
2023-01-04T11:02:20.967Z,-20465.31
2023-01-04T11:03:42.344Z,-20468.63
2023-01-04T11:04:56.790Z,-20469.56
2023-01-04T11:05:59.333Z,-20466.25
2023-01-04T11:07:17.792Z,-20470.28
2023-01-04T11:09:02.543Z,-20470.47
2023-01-04T11:10:15.363Z,-20469.94
2023-01-04T11:11:42.503Z,-20470.47
2023-01-04T11:12:45.990Z,-20468.81
2023-01-04T11:13:49.831Z,-20471.41
2023-01-04T11:14:52.852Z,-20469.19
2023-01-04T11:15:55.785Z,-20469.00
2023-01-04T11:17:01.621Z,-20470.66
2023-01-04T11:18:08.188Z,-20470.47
2023-01-04T11:19:11.672Z,-20469.56
2023-01-04T11:20:14.334Z,-20469.94
2023-01-04T11:21:22.479Z,-20471.78
2023-01-04T11:22:36.567Z,-20471.03
2023-01-04T11:23:39.413Z,-20470.66
2023-01-04T11:25:07.818Z,-20471.97
2023-01-04T11:26:18.282Z,-20471.59
2023-01-04T11:27:28.974Z,-20473.81
2023-01-04T11:28:53.927Z,-20472.50
2023-01-04T11:30:11.824Z,-20473.06
2023-01-04T11:31:42.985Z,-20472.34
2023-01-04T11:33:16.155Z,-20474.00
2023-01-04T11:34:18.894Z,-20471.78
2023-01-04T11:35:49.768Z,-20473.25
2023-01-04T11:36:52.382Z,-20470.66
2023-01-04T11:38:12.328Z,-20472.34
2023-01-04T11:39:20.971Z,-20474.34
2023-01-04T11:40:25.281Z,-20472.69
2023-01-04T11:41:28.641Z,-20473.25
2023-01-04T11:42:32.115Z,-20472.16
2023-01-04T11:43:40.397Z,-20473.25
2023-01-04T11:44:43.519Z,-20471.78
2023-01-04T11:46:07.905Z,-20474.72
2023-01-04T11:47:26.677Z,-20475.28
2023-01-04T11:48:40.537Z,-20474.91
2023-01-04T11:49:43.648Z,-20473.25
2023-01-04T11:50:48.681Z,-20474.72
2023-01-04T11:51:51.805Z,-20474.34
2023-01-04T11:52:54.928Z,-20476.00
2023-01-04T11:53:59.156Z,-20476.38
2023-01-04T11:55:31.527Z,-20478.97
2023-01-04T11:56:38.024Z,-20478.06
2023-01-04T11:57:41.256Z,-20476.94
2023-01-04T11:59:02.742Z,-20477.69
2023-01-04T12:00:14.797Z,-20479.53
2023-01-04T12:01:25.697Z,-20481.00
2023-01-04T12:03:00.237Z,-20479.53
2023-01-04T12:03:52.546Z,-20479.91
2023-01-04T12:04:55.905Z,-20480.63
2023-01-04T12:05:59.396Z,-20480.44
2023-01-04T12:07:24.236Z,-20481.38
2023-01-04T12:08:30.714Z,-20482.13
2023-01-04T12:09:34.076Z,-20480.25
2023-01-04T12:10:37.321Z,-20481.00
2023-01-04T12:11:43.918Z,-20480.63
2023-01-04T12:12:47.193Z,-20479.72
2023-01-04T12:13:50.521Z,-20481.38
2023-01-04T12:14:54.006Z,-20481.00
2023-01-04T12:16:11.646Z,-20483.59
2023-01-04T12:17:26.178Z,-20482.50
2023-01-04T12:18:34.812Z,-20480.25
2023-01-04T12:19:41.051Z,-20480.44
2023-01-04T12:20:45.371Z,-20482.31
2023-01-04T12:21:52.937Z,-20482.13
2023-01-04T12:22:55.938Z,-20481.75
2023-01-04T12:23:58.880Z,-20481.19
2023-01-04T12:25:04.461Z,-20483.22
2023-01-04T12:26:09.035Z,-20482.50
2023-01-04T12:27:14.953Z,-20483.41
2023-01-04T12:28:36.075Z,-20485.81
2023-01-04T12:29:44.347Z,-20486.00
2023-01-04T12:30:47.119Z,-20484.34
2023-01-04T12:31:51.517Z,-20484.34
2023-01-04T12:32:54.082Z,-20484.50
2023-01-04T12:33:59.210Z,-20485.44
2023-01-04T12:35:01.835Z,-20482.84
2023-01-04T12:36:08.808Z,-20485.06
2023-01-04T12:37:46.237Z,-20485.06
2023-01-04T12:38:54.814Z,-20483.78
2023-01-04T12:39:57.326Z,-20481.38
2023-01-04T12:40:59.960Z,-20479.53
2023-01-04T12:42:03.740Z,-20480.63
2023-01-04T12:43:15.205Z,-20483.22
2023-01-04T12:44:36.457Z,-20482.31
2023-01-04T12:45:39.345Z,-20481.56
2023-01-04T12:47:01.289Z,-20482.31
2023-01-04T12:48:48.498Z,-20482.50
2023-01-04T12:49:56.964Z,-20481.00
2023-01-04T12:51:34.103Z,-20481.38
2023-01-04T12:53:19.436Z,-20478.97
2023-01-04T12:54:32.193Z,-20480.25
2023-01-04T12:55:40.617Z,-20480.44
2023-01-04T12:57:12.221Z,-20483.59
2023-01-04T12:58:58.222Z,-20484.69
2023-01-04T13:00:02.869Z,-20483.59
2023-01-04T13:01:09.726Z,-20482.50
2023-01-04T13:02:30.378Z,-20485.63
2023-01-04T13:03:32.898Z,-20484.34
2023-01-04T13:04:41.419Z,-20488.03
2023-01-04T13:06:02.628Z,-20490.78
2023-01-04T13:07:14.625Z,-20490.25
2023-01-04T13:08:17.137Z,-20489.13
2023-01-04T13:09:24.975Z,-20491.53
2023-01-04T13:10:42.337Z,-20493.75
2023-01-04T13:12:08.400Z,-20493.94
2023-01-04T13:13:41.983Z,-20493.94